createdAt,value
2022-11-08T00:00:04.276Z,1014.62
2022-11-08T00:05:03.182Z,1014.69
2022-11-08T00:10:06.529Z,1014.72
2022-11-08T00:15:03.193Z,1014.78
2022-11-08T00:20:04.056Z,1014.8
2022-11-08T00:25:03.469Z,1014.8
2022-11-08T00:30:04.350Z,1014.84
2022-11-08T00:35:03.228Z,1014.87
2022-11-08T00:40:04.738Z,1014.87
2022-11-08T00:45:03.181Z,1014.88
2022-11-08T00:50:04.318Z,1014.88
2022-11-08T00:55:03.166Z,1014.93
2022-11-08T01:00:09.411Z,1014.95
2022-11-08T01:05:03.214Z,1014.97
2022-11-08T01:10:04.394Z,1014.95
2022-11-08T01:15:03.198Z,1015.0
2022-11-08T16:35:03.085Z,1013.33
2022-11-08T16:40:04.306Z,1013.27
2022-11-08T16:45:04.135Z,1013.15
2022-11-08T16:50:04.548Z,1013.1
2022-11-08T17:00:03.565Z,1012.91
2022-11-08T17:05:03.118Z,1012.81
2022-11-08T17:10:04.474Z,1012.8
2022-11-08T17:15:03.068Z,1012.75
2022-11-08T17:20:04.346Z,1012.68
2022-11-08T17:25:03.128Z,1012.5
2022-11-08T17:30:06.436Z,1012.44
2022-11-08T17:35:03.073Z,1012.38
2022-11-08T17:40:04.342Z,1012.3
2022-11-08T17:45:03.203Z,1012.25
2022-11-08T17:50:04.406Z,1012.14
2022-11-08T17:55:03.304Z,1012.14
2022-11-08T18:00:07.473Z,1012.07
2022-11-08T18:05:03.139Z,1012.02
2022-11-08T18:10:04.617Z,1011.9
2022-11-08T18:15:03.168Z,1011.82
2022-11-08T18:20:04.520Z,1011.76
2022-11-08T18:25:03.261Z,1011.76
2022-11-08T18:30:04.111Z,1011.55
2022-11-08T18:35:03.228Z,1011.48
2022-11-08T18:40:04.551Z,1011.35
2022-11-08T18:45:03.195Z,1011.3
2022-11-08T18:50:04.484Z,1011.35
2022-11-08T18:55:03.244Z,1011.35
2022-11-08T19:00:04.429Z,1011.36
2022-11-08T19:05:03.197Z,1011.36
2022-11-08T19:10:04.441Z,1011.29
2022-11-08T19:15:03.317Z,1011.2
2022-11-08T19:20:04.415Z,1011.2
2022-11-08T19:25:03.243Z,1011.02
2022-11-08T19:30:04.426Z,1011.0
2022-11-08T19:35:03.173Z,1011.03
2022-11-08T19:40:04.395Z,1011.1
2022-11-08T19:45:03.213Z,1011.11
2022-11-08T19:50:04.651Z,1011.11
2022-11-08T19:55:04.250Z,1011.07
2022-11-08T20:00:04.336Z,1011.01
2022-11-08T20:05:03.211Z,1010.97
2022-11-08T20:10:04.848Z,1010.92
2022-11-08T20:15:05.861Z,1010.9
2022-11-08T20:20:04.386Z,1010.89
2022-11-08T20:25:03.291Z,1010.83
2022-11-08T20:30:04.429Z,1010.88
2022-11-08T20:35:04.140Z,1010.78
2022-11-08T20:40:04.572Z,1010.77
2022-11-08T20:45:03.188Z,1010.85
2022-11-08T20:50:04.355Z,1010.8
2022-11-08T20:55:03.310Z,1010.81
2022-11-08T21:00:12.952Z,1010.84
2022-11-08T21:05:03.200Z,1010.92
2022-11-08T21:10:27.225Z,1010.97
2022-11-08T21:15:03.123Z,1011.07
2022-11-08T21:20:04.457Z,1011.12
2022-11-08T21:25:04.241Z,1011.18
2022-11-08T21:30:04.438Z,1011.22
2022-11-08T21:35:03.271Z,1011.23
2022-11-08T21:40:04.359Z,1011.38
2022-11-08T21:45:03.158Z,1011.45
2022-11-08T21:50:04.543Z,1011.5
2022-11-08T21:55:03.236Z,1011.6
2022-11-08T22:00:04.477Z,1011.69
2022-11-08T22:05:03.220Z,1011.72
2022-11-08T22:10:11.374Z,1011.77
2022-11-08T22:15:03.193Z,1011.83
2022-11-08T22:20:04.441Z,1011.94
2022-11-08T22:25:03.119Z,1011.97
2022-11-08T22:30:04.667Z,1012.09
2022-11-08T22:35:03.333Z,1012.15
2022-11-08T22:40:04.172Z,1012.26
2022-11-08T22:45:03.177Z,1012.32
2022-11-08T22:50:06.445Z,1012.36
2022-11-08T22:55:03.227Z,1012.36
2022-11-08T23:00:04.192Z,1012.4
2022-11-08T23:05:03.117Z,1012.44
2022-11-08T23:10:04.418Z,1012.51
2022-11-08T23:15:03.306Z,1012.59
2022-11-08T23:20:04.491Z,1012.65
2022-11-08T23:25:03.219Z,1012.67
2022-11-08T23:30:04.431Z,1012.69
2022-11-08T23:35:04.199Z,1012.75
2022-11-08T23:40:04.413Z,1012.8
2022-11-08T23:45:03.224Z,1012.78
2022-11-08T23:50:04.624Z,1012.8
2022-11-08T23:55:03.157Z,1012.82
